sensor_id;sensor_type;location;lat;lon;timestamp;P1;durP1;ratioP1;P2;durP2;ratioP2
71947;SDS011;63257;55.082;38.772;2022-12-10T00:01:26;29.13;;;9.80;;
71947;SDS011;63257;55.082;38.772;2022-12-10T00:03:54;25.10;;;10.10;;
71947;SDS011;63257;55.082;38.772;2022-12-10T00:06:25;26.80;;;10.00;;
71947;SDS011;63257;55.082;38.772;2022-12-10T00:08:53;24.90;;;9.47;;
71947;SDS011;63257;55.082;38.772;2022-12-10T00:11:19;21.58;;;8.48;;
71947;SDS011;63257;55.082;38.772;2022-12-10T00:13:47;22.48;;;8.82;;
71947;SDS011;63257;55.082;38.772;2022-12-10T00:16:15;21.57;;;9.00;;
71947;SDS011;63257;55.082;38.772;2022-12-10T00:18:43;24.85;;;8.95;;
71947;SDS011;63257;55.082;38.772;2022-12-10T00:21:10;23.60;;;8.75;;
71947;SDS011;63257;55.082;38.772;2022-12-10T00:23:38;25.75;;;9.50;;
71947;SDS011;63257;55.082;38.772;2022-12-10T00:26:05;20.45;;;8.70;;
71947;SDS011;63257;55.082;38.772;2022-12-10T00:28:33;21.80;;;8.63;;
71947;SDS011;63257;55.082;38.772;2022-12-10T00:31:06;24.10;;;8.73;;
71947;SDS011;63257;55.082;38.772;2022-12-10T00:33:40;28.23;;;8.97;;
71947;SDS011;63257;55.082;38.772;2022-12-10T00:36:08;21.95;;;8.75;;
71947;SDS011;63257;55.082;38.772;2022-12-10T00:38:36;21.25;;;8.90;;
71947;SDS011;63257;55.082;38.772;2022-12-10T00:41:03;22.17;;;8.57;;
71947;SDS011;63257;55.082;38.772;2022-12-10T00:43:29;20.48;;;8.32;;
71947;SDS011;63257;55.082;38.772;2022-12-10T00:45:55;23.17;;;8.35;;
71947;SDS011;63257;55.082;38.772;2022-12-10T00:48:22;24.92;;;8.80;;
71947;SDS011;63257;55.082;38.772;2022-12-10T00:51:02;24.95;;;9.73;;
71947;SDS011;63257;55.082;38.772;2022-12-10T00:53:30;22.27;;;9.40;;
71947;SDS011;63257;55.082;38.772;2022-12-10T00:55:57;30.42;;;11.70;;
71947;SDS011;63257;55.082;38.772;2022-12-10T00:58:26;25.70;;;10.87;;
71947;SDS011;63257;55.082;38.772;2022-12-10T01:00:53;28.05;;;11.55;;
71947;SDS011;63257;55.082;38.772;2022-12-10T01:03:19;28.88;;;10.55;;
71947;SDS011;63257;55.082;38.772;2022-12-10T01:05:45;29.03;;;11.40;;
71947;SDS011;63257;55.082;38.772;2022-12-10T01:08:12;25.02;;;10.38;;
71947;SDS011;63257;55.082;38.772;2022-12-10T01:10:38;27.27;;;10.45;;
71947;SDS011;63257;55.082;38.772;2022-12-10T01:13:04;22.33;;;9.10;;
71947;SDS011;63257;55.082;38.772;2022-12-10T01:15:30;21.92;;;9.82;;
71947;SDS011;63257;55.082;38.772;2022-12-10T01:17:56;23.30;;;9.73;;
71947;SDS011;63257;55.082;38.772;2022-12-10T01:20:22;19.27;;;8.53;;
71947;SDS011;63257;55.082;38.772;2022-12-10T01:22:48;18.25;;;8.35;;
71947;SDS011;63257;55.082;38.772;2022-12-10T01:25:14;22.27;;;9.40;;
71947;SDS011;63257;55.082;38.772;2022-12-10T01:27:40;19.73;;;8.60;;
71947;SDS011;63257;55.082;38.772;2022-12-10T01:30:06;20.50;;;8.80;;
71947;SDS011;63257;55.082;38.772;2022-12-10T01:32:35;20.25;;;8.55;;
71947;SDS011;63257;55.082;38.772;2022-12-10T01:35:01;18.38;;;7.68;;
71947;SDS011;63257;55.082;38.772;2022-12-10T01:37:28;17.90;;;7.67;;
71947;SDS011;63257;55.082;38.772;2022-12-10T01:39:54;19.23;;;7.10;;
71947;SDS011;63257;55.082;38.772;2022-12-10T01:42:20;23.33;;;9.80;;
71947;SDS011;63257;55.082;38.772;2022-12-10T01:47:14;25.77;;;10.70;;
71947;SDS011;63257;55.082;38.772;2022-12-10T01:49:40;19.00;;;8.60;;
71947;SDS011;63257;55.082;38.772;2022-12-10T01:52:08;21.70;;;8.80;;
71947;SDS011;63257;55.082;38.772;2022-12-10T01:54:40;19.95;;;8.10;;
71947;SDS011;63257;55.082;38.772;2022-12-10T01:57:16;18.83;;;7.77;;
71947;SDS011;63257;55.082;38.772;2022-12-10T01:59:45;21.95;;;8.23;;
71947;SDS011;63257;55.082;38.772;2022-12-10T02:04:56;17.63;;;7.63;;
71947;SDS011;63257;55.082;38.772;2022-12-10T02:10:10;18.45;;;7.55;;
71947;SDS011;63257;55.082;38.772;2022-12-10T02:12:51;20.30;;;7.72;;
71947;SDS011;63257;55.082;38.772;2022-12-10T02:15:27;18.13;;;7.78;;
71947;SDS011;63257;55.082;38.772;2022-12-10T02:18:05;17.63;;;7.40;;
71947;SDS011;63257;55.082;38.772;2022-12-10T02:20:38;17.95;;;7.20;;
71947;SDS011;63257;55.082;38.772;2022-12-10T02:23:10;16.80;;;7.07;;
71947;SDS011;63257;55.082;38.772;2022-12-10T02:25:45;16.70;;;6.75;;
71947;SDS011;63257;55.082;38.772;2022-12-10T02:30:51;19.50;;;7.27;;
71947;SDS011;63257;55.082;38.772;2022-12-10T02:33:19;20.42;;;7.75;;
71947;SDS011;63257;55.082;38.772;2022-12-10T02:35:48;18.10;;;8.57;;
71947;SDS011;63257;55.082;38.772;2022-12-10T02:38:36;19.27;;;8.68;;
71947;SDS011;63257;55.082;38.772;2022-12-10T02:41:04;22.02;;;8.23;;
71947;SDS011;63257;55.082;38.772;2022-12-10T02:43:33;20.30;;;7.80;;
71947;SDS011;63257;55.082;38.772;2022-12-10T02:46:01;21.55;;;8.05;;
71947;SDS011;63257;55.082;38.772;2022-12-10T02:48:30;17.13;;;7.13;;
71947;SDS011;63257;55.082;38.772;2022-12-10T02:50:57;19.42;;;7.75;;
71947;SDS011;63257;55.082;38.772;2022-12-10T02:53:23;19.83;;;8.02;;
71947;SDS011;63257;55.082;38.772;2022-12-10T03:01:32;15.30;;;6.97;;
71947;SDS011;63257;55.082;38.772;2022-12-10T03:04:14;17.87;;;8.10;;
71947;SDS011;63257;55.082;38.772;2022-12-10T03:06:52;15.27;;;6.80;;
71947;SDS011;63257;55.082;38.772;2022-12-10T03:09:25;18.00;;;7.57;;
71947;SDS011;63257;55.082;38.772;2022-12-10T03:12:02;17.73;;;7.70;;
71947;SDS011;63257;55.082;38.772;2022-12-10T03:14:36;18.67;;;7.53;;
71947;SDS011;63257;55.082;38.772;2022-12-10T03:17:03;17.42;;;7.32;;
71947;SDS011;63257;55.082;38.772;2022-12-10T03:19:32;17.30;;;7.47;;
71947;SDS011;63257;55.082;38.772;2022-12-10T03:22:05;16.53;;;7.20;;
71947;SDS011;63257;55.082;38.772;2022-12-10T03:24:35;18.45;;;7.32;;
71947;SDS011;63257;55.082;38.772;2022-12-10T03:27:01;19.08;;;7.70;;
71947;SDS011;63257;55.082;38.772;2022-12-10T03:29:34;18.90;;;8.10;;
71947;SDS011;63257;55.082;38.772;2022-12-10T03:32:05;17.27;;;7.63;;
71947;SDS011;63257;55.082;38.772;2022-12-10T03:34:31;18.80;;;7.78;;
71947;SDS011;63257;55.082;38.772;2022-12-10T03:36:58;19.25;;;8.25;;
71947;SDS011;63257;55.082;38.772;2022-12-10T03:39:25;18.85;;;7.70;;
71947;SDS011;63257;55.082;38.772;2022-12-10T03:41:52;17.75;;;7.50;;
71947;SDS011;63257;55.082;38.772;2022-12-10T03:47:17;20.63;;;7.78;;
71947;SDS011;63257;55.082;38.772;2022-12-10T03:49:43;16.08;;;7.30;;
71947;SDS011;63257;55.082;38.772;2022-12-10T03:52:10;18.75;;;7.65;;
71947;SDS011;63257;55.082;38.772;2022-12-10T03:54:36;18.33;;;7.33;;
71947;SDS011;63257;55.082;38.772;2022-12-10T03:57:02;19.55;;;8.13;;
71947;SDS011;63257;55.082;38.772;2022-12-10T03:59:28;17.27;;;7.05;;
71947;SDS011;63257;55.082;38.772;2022-12-10T04:01:56;17.58;;;7.43;;
71947;SDS011;63257;55.082;38.772;2022-12-10T04:04:22;19.48;;;7.55;;
71947;SDS011;63257;55.082;38.772;2022-12-10T04:06:48;19.97;;;8.00;;
71947;SDS011;63257;55.082;38.772;2022-12-10T04:09:14;20.25;;;8.23;;
71947;SDS011;63257;55.082;38.772;2022-12-10T04:11:41;20.60;;;8.48;;
71947;SDS011;63257;55.082;38.772;2022-12-10T04:14:08;19.77;;;7.60;;
71947;SDS011;63257;55.082;38.772;2022-12-10T04:16:53;17.90;;;7.75;;
71947;SDS011;63257;55.082;38.772;2022-12-10T04:19:19;18.37;;;7.80;;
71947;SDS011;63257;55.082;38.772;2022-12-10T04:21:45;18.55;;;7.68;;
71947;SDS011;63257;55.082;38.772;2022-12-10T04:24:31;20.90;;;8.27;;
71947;SDS011;63257;55.082;38.772;2022-12-10T04:27:27;18.35;;;7.35;;
71947;SDS011;63257;55.082;38.772;2022-12-10T04:29:55;19.52;;;8.05;;
71947;SDS011;63257;55.082;38.772;2022-12-10T04:32:22;18.48;;;7.50;;
71947;SDS011;63257;55.082;38.772;2022-12-10T04:34:49;17.30;;;7.90;;
71947;SDS011;63257;55.082;38.772;2022-12-10T04:37:15;18.97;;;7.60;;
71947;SDS011;63257;55.082;38.772;2022-12-10T04:39:42;18.77;;;7.75;;
71947;SDS011;63257;55.082;38.772;2022-12-10T04:42:08;17.98;;;7.32;;
71947;SDS011;63257;55.082;38.772;2022-12-10T04:44:34;17.87;;;7.90;;
71947;SDS011;63257;55.082;38.772;2022-12-10T04:47:02;19.10;;;7.47;;
71947;SDS011;63257;55.082;38.772;2022-12-10T04:49:29;21.80;;;7.90;;
71947;SDS011;63257;55.082;38.772;2022-12-10T04:51:57;20.13;;;7.50;;
71947;SDS011;63257;55.082;38.772;2022-12-10T04:54:23;19.80;;;7.70;;
71947;SDS011;63257;55.082;38.772;2022-12-10T04:56:49;19.10;;;7.05;;
71947;SDS011;63257;55.082;38.772;2022-12-10T04:59:15;22.00;;;7.93;;
71947;SDS011;63257;55.082;38.772;2022-12-10T05:01:41;31.20;;;8.57;;
71947;SDS011;63257;55.082;38.772;2022-12-10T05:04:10;29.73;;;8.60;;
71947;SDS011;63257;55.082;38.772;2022-12-10T05:06:37;24.40;;;9.27;;
71947;SDS011;63257;55.082;38.772;2022-12-10T05:09:04;25.92;;;8.73;;
71947;SDS011;63257;55.082;38.772;2022-12-10T05:11:31;22.70;;;8.77;;
71947;SDS011;63257;55.082;38.772;2022-12-10T05:13:58;31.95;;;9.20;;
71947;SDS011;63257;55.082;38.772;2022-12-10T05:16:25;27.80;;;9.10;;
71947;SDS011;63257;55.082;38.772;2022-12-10T05:18:53;26.25;;;8.52;;
71947;SDS011;63257;55.082;38.772;2022-12-10T05:21:20;28.13;;;8.52;;
71947;SDS011;63257;55.082;38.772;2022-12-10T05:23:49;27.73;;;7.83;;
71947;SDS011;63257;55.082;38.772;2022-12-10T05:26:17;29.02;;;8.88;;
71947;SDS011;63257;55.082;38.772;2022-12-10T05:28:56;26.55;;;8.05;;
71947;SDS011;63257;55.082;38.772;2022-12-10T05:31:27;26.27;;;8.60;;
71947;SDS011;63257;55.082;38.772;2022-12-10T05:33:54;36.00;;;9.43;;
71947;SDS011;63257;55.082;38.772;2022-12-10T05:36:23;31.55;;;9.43;;
71947;SDS011;63257;55.082;38.772;2022-12-10T05:38:51;35.92;;;8.80;;
71947;SDS011;63257;55.082;38.772;2022-12-10T05:41:20;33.73;;;9.50;;
71947;SDS011;63257;55.082;38.772;2022-12-10T05:43:52;29.13;;;8.73;;
71947;SDS011;63257;55.082;38.772;2022-12-10T05:46:20;31.77;;;9.10;;
71947;SDS011;63257;55.082;38.772;2022-12-10T05:48:48;33.70;;;9.17;;
71947;SDS011;63257;55.082;38.772;2022-12-10T05:51:15;38.92;;;9.85;;
71947;SDS011;63257;55.082;38.772;2022-12-10T05:53:43;34.38;;;9.68;;
71947;SDS011;63257;55.082;38.772;2022-12-10T05:56:17;40.05;;;10.45;;
71947;SDS011;63257;55.082;38.772;2022-12-10T05:58:46;33.20;;;9.70;;
71947;SDS011;63257;55.082;38.772;2022-12-10T06:01:16;40.80;;;10.82;;
71947;SDS011;63257;55.082;38.772;2022-12-10T06:03:45;33.97;;;10.18;;
71947;SDS011;63257;55.082;38.772;2022-12-10T06:06:11;37.00;;;9.87;;
71947;SDS011;63257;55.082;38.772;2022-12-10T06:08:38;38.83;;;11.15;;
71947;SDS011;63257;55.082;38.772;2022-12-10T06:11:07;31.73;;;10.35;;
71947;SDS011;63257;55.082;38.772;2022-12-10T06:13:35;39.50;;;11.03;;
71947;SDS011;63257;55.082;38.772;2022-12-10T06:16:06;33.42;;;9.57;;
71947;SDS011;63257;55.082;38.772;2022-12-10T06:18:34;33.60;;;10.18;;
71947;SDS011;63257;55.082;38.772;2022-12-10T06:21:08;38.13;;;10.40;;
71947;SDS011;63257;55.082;38.772;2022-12-10T06:23:36;30.77;;;10.10;;
71947;SDS011;63257;55.082;38.772;2022-12-10T06:26:05;26.65;;;9.60;;
71947;SDS011;63257;55.082;38.772;2022-12-10T06:28:31;31.88;;;10.23;;
71947;SDS011;63257;55.082;38.772;2022-12-10T06:30:58;30.00;;;9.10;;
71947;SDS011;63257;55.082;38.772;2022-12-10T06:33:25;33.78;;;9.88;;
71947;SDS011;63257;55.082;38.772;2022-12-10T06:35:51;33.92;;;10.10;;
71947;SDS011;63257;55.082;38.772;2022-12-10T06:38:17;36.10;;;10.57;;
71947;SDS011;63257;55.082;38.772;2022-12-10T06:40:44;32.25;;;9.80;;
71947;SDS011;63257;55.082;38.772;2022-12-10T06:43:10;32.83;;;9.95;;
71947;SDS011;63257;55.082;38.772;2022-12-10T06:45:38;35.80;;;9.53;;
71947;SDS011;63257;55.082;38.772;2022-12-10T06:48:05;30.40;;;10.38;;
71947;SDS011;63257;55.082;38.772;2022-12-10T06:50:32;36.72;;;12.55;;
71947;SDS011;63257;55.082;38.772;2022-12-10T06:52:59;31.25;;;9.07;;
71947;SDS011;63257;55.082;38.772;2022-12-10T06:55:25;32.38;;;9.82;;
71947;SDS011;63257;55.082;38.772;2022-12-10T06:57:51;32.53;;;9.70;;
71947;SDS011;63257;55.082;38.772;2022-12-10T07:00:18;31.33;;;9.75;;
71947;SDS011;63257;55.082;38.772;2022-12-10T07:02:45;33.38;;;9.63;;
71947;SDS011;63257;55.082;38.772;2022-12-10T07:05:11;31.27;;;9.60;;
71947;SDS011;63257;55.082;38.772;2022-12-10T07:07:37;29.00;;;9.68;;
71947;SDS011;63257;55.082;38.772;2022-12-10T07:10:03;30.67;;;10.63;;
71947;SDS011;63257;55.082;38.772;2022-12-10T07:12:30;33.00;;;10.55;;
71947;SDS011;63257;55.082;38.772;2022-12-10T07:14:58;34.00;;;10.85;;
71947;SDS011;63257;55.082;38.772;2022-12-10T07:17:24;26.77;;;9.30;;
71947;SDS011;63257;55.082;38.772;2022-12-10T07:19:50;31.40;;;10.15;;
71947;SDS011;63257;55.082;38.772;2022-12-10T07:22:16;30.92;;;11.75;;
71947;SDS011;63257;55.082;38.772;2022-12-10T07:24:43;31.02;;;10.27;;
71947;SDS011;63257;55.082;38.772;2022-12-10T07:27:09;31.73;;;10.82;;
71947;SDS011;63257;55.082;38.772;2022-12-10T07:29:35;28.90;;;11.65;;
71947;SDS011;63257;55.082;38.772;2022-12-10T07:32:01;30.20;;;10.53;;
71947;SDS011;63257;55.082;38.772;2022-12-10T07:34:27;28.20;;;10.45;;
71947;SDS011;63257;55.082;38.772;2022-12-10T07:36:53;24.25;;;9.40;;
71947;SDS011;63257;55.082;38.772;2022-12-10T07:39:20;29.95;;;10.00;;
71947;SDS011;63257;55.082;38.772;2022-12-10T07:41:49;26.25;;;9.98;;
71947;SDS011;63257;55.082;38.772;2022-12-10T07:44:20;26.98;;;10.55;;
71947;SDS011;63257;55.082;38.772;2022-12-10T07:46:47;27.13;;;10.77;;
71947;SDS011;63257;55.082;38.772;2022-12-10T07:49:24;28.27;;;10.75;;
71947;SDS011;63257;55.082;38.772;2022-12-10T07:51:51;26.45;;;10.02;;
71947;SDS011;63257;55.082;38.772;2022-12-10T07:54:17;24.47;;;8.90;;
71947;SDS011;63257;55.082;38.772;2022-12-10T07:56:44;24.10;;;8.25;;
71947;SDS011;63257;55.082;38.772;2022-12-10T07:59:10;24.27;;;7.88;;
71947;SDS011;63257;55.082;38.772;2022-12-10T08:01:42;24.50;;;8.35;;
71947;SDS011;63257;55.082;38.772;2022-12-10T08:04:08;26.80;;;8.40;;
71947;SDS011;63257;55.082;38.772;2022-12-10T08:06:34;23.33;;;8.48;;
71947;SDS011;63257;55.082;38.772;2022-12-10T08:09:00;21.95;;;8.68;;
71947;SDS011;63257;55.082;38.772;2022-12-10T08:11:27;27.08;;;9.77;;
71947;SDS011;63257;55.082;38.772;2022-12-10T08:13:54;26.33;;;10.43;;
71947;SDS011;63257;55.082;38.772;2022-12-10T08:16:21;28.10;;;11.30;;
71947;SDS011;63257;55.082;38.772;2022-12-10T08:18:52;29.13;;;10.27;;
71947;SDS011;63257;55.082;38.772;2022-12-10T08:21:21;30.90;;;11.18;;
71947;SDS011;63257;55.082;38.772;2022-12-10T08:23:49;25.17;;;9.95;;
71947;SDS011;63257;55.082;38.772;2022-12-10T08:26:19;24.77;;;9.80;;
71947;SDS011;63257;55.082;38.772;2022-12-10T08:28:50;26.35;;;10.82;;
71947;SDS011;63257;55.082;38.772;2022-12-10T08:31:17;33.00;;;11.23;;
71947;SDS011;63257;55.082;38.772;2022-12-10T08:33:44;30.15;;;11.00;;
71947;SDS011;63257;55.082;38.772;2022-12-10T08:36:12;34.88;;;11.75;;
71947;SDS011;63257;55.082;38.772;2022-12-10T08:38:40;27.00;;;10.25;;
71947;SDS011;63257;55.082;38.772;2022-12-10T08:43:41;25.90;;;9.73;;
71947;SDS011;63257;55.082;38.772;2022-12-10T08:46:14;30.38;;;9.85;;
71947;SDS011;63257;55.082;38.772;2022-12-10T08:48:41;29.00;;;9.85;;
71947;SDS011;63257;55.082;38.772;2022-12-10T08:51:09;30.40;;;9.23;;
71947;SDS011;63257;55.082;38.772;2022-12-10T08:53:41;23.60;;;9.10;;
71947;SDS011;63257;55.082;38.772;2022-12-10T08:56:11;22.33;;;8.60;;
71947;SDS011;63257;55.082;38.772;2022-12-10T08:58:38;24.25;;;8.75;;
71947;SDS011;63257;55.082;38.772;2022-12-10T09:01:08;23.13;;;9.00;;
71947;SDS011;63257;55.082;38.772;2022-12-10T09:03:37;23.27;;;9.25;;
71947;SDS011;63257;55.082;38.772;2022-12-10T09:06:05;20.50;;;8.02;;
71947;SDS011;63257;55.082;38.772;2022-12-10T09:08:33;29.33;;;9.87;;
71947;SDS011;63257;55.082;38.772;2022-12-10T09:13:57;18.33;;;7.25;;
71947;SDS011;63257;55.082;38.772;2022-12-10T09:16:33;26.53;;;9.13;;
71947;SDS011;63257;55.082;38.772;2022-12-10T09:19:01;21.42;;;7.97;;
71947;SDS011;63257;55.082;38.772;2022-12-10T09:21:29;23.77;;;8.55;;
71947;SDS011;63257;55.082;38.772;2022-12-10T09:23:55;21.25;;;8.48;;
71947;SDS011;63257;55.082;38.772;2022-12-10T09:26:22;19.38;;;7.57;;
71947;SDS011;63257;55.082;38.772;2022-12-10T09:28:49;28.52;;;9.13;;
71947;SDS011;63257;55.082;38.772;2022-12-10T09:31:15;24.33;;;8.98;;
71947;SDS011;63257;55.082;38.772;2022-12-10T09:33:42;25.33;;;9.73;;
71947;SDS011;63257;55.082;38.772;2022-12-10T09:36:10;30.30;;;9.13;;
71947;SDS011;63257;55.082;38.772;2022-12-10T09:38:37;22.80;;;8.70;;
71947;SDS011;63257;55.082;38.772;2022-12-10T09:41:13;27.57;;;10.43;;
71947;SDS011;63257;55.082;38.772;2022-12-10T09:46:50;30.33;;;11.75;;
71947;SDS011;63257;55.082;38.772;2022-12-10T09:49:24;25.75;;;9.30;;
71947;SDS011;63257;55.082;38.772;2022-12-10T09:52:11;24.55;;;9.98;;
71947;SDS011;63257;55.082;38.772;2022-12-10T09:54:41;26.05;;;9.40;;
71947;SDS011;63257;55.082;38.772;2022-12-10T09:57:14;21.83;;;9.38;;
71947;SDS011;63257;55.082;38.772;2022-12-10T10:00:05;24.40;;;10.00;;
71947;SDS011;63257;55.082;38.772;2022-12-10T10:07:02;26.17;;;9.38;;
71947;SDS011;63257;55.082;38.772;2022-12-10T10:09:42;23.70;;;10.77;;
71947;SDS011;63257;55.082;38.772;2022-12-10T10:12:30;24.98;;;10.93;;
71947;SDS011;63257;55.082;38.772;2022-12-10T10:14:59;26.58;;;10.60;;
71947;SDS011;63257;55.082;38.772;2022-12-10T10:17:42;31.85;;;12.85;;
71947;SDS011;63257;55.082;38.772;2022-12-10T10:20:11;34.08;;;12.32;;
71947;SDS011;63257;55.082;38.772;2022-12-10T10:22:41;31.27;;;12.80;;
71947;SDS011;63257;55.082;38.772;2022-12-10T10:25:17;31.33;;;13.50;;
71947;SDS011;63257;55.082;38.772;2022-12-10T10:27:44;26.47;;;11.20;;
71947;SDS011;63257;55.082;38.772;2022-12-10T10:30:14;29.98;;;11.70;;
71947;SDS011;63257;55.082;38.772;2022-12-10T10:35:21;23.70;;;10.80;;
71947;SDS011;63257;55.082;38.772;2022-12-10T10:38:15;30.38;;;12.43;;
71947;SDS011;63257;55.082;38.772;2022-12-10T10:40:45;36.40;;;12.85;;
71947;SDS011;63257;55.082;38.772;2022-12-10T10:43:20;35.42;;;13.48;;
71947;SDS011;63257;55.082;38.772;2022-12-10T10:45:51;33.15;;;12.10;;
71947;SDS011;63257;55.082;38.772;2022-12-10T10:48:24;31.20;;;11.85;;
71947;SDS011;63257;55.082;38.772;2022-12-10T10:50:53;26.20;;;10.95;;
71947;SDS011;63257;55.082;38.772;2022-12-10T10:56:07;24.35;;;9.73;;
71947;SDS011;63257;55.082;38.772;2022-12-10T10:58:56;26.63;;;9.73;;
71947;SDS011;63257;55.082;38.772;2022-12-10T11:02:01;21.33;;;8.93;;
71947;SDS011;63257;55.082;38.772;2022-12-10T11:04:24;24.10;;;9.70;;
71947;SDS011;63257;55.082;38.772;2022-12-10T11:07:04;22.88;;;8.90;;
71947;SDS011;63257;55.082;38.772;2022-12-10T11:09:44;21.67;;;8.68;;
71947;SDS011;63257;55.082;38.772;2022-12-10T11:15:00;24.30;;;8.77;;
71947;SDS011;63257;55.082;38.772;2022-12-10T11:17:29;21.90;;;8.15;;
71947;SDS011;63257;55.082;38.772;2022-12-10T11:22:48;18.30;;;7.50;;
71947;SDS011;63257;55.082;38.772;2022-12-10T11:25:20;20.48;;;8.32;;
71947;SDS011;63257;55.082;38.772;2022-12-10T11:28:57;20.20;;;8.33;;
71947;SDS011;63257;55.082;38.772;2022-12-10T11:39:29;25.70;;;8.77;;
71947;SDS011;63257;55.082;38.772;2022-12-10T11:42:21;24.35;;;7.30;;
71947;SDS011;63257;55.082;38.772;2022-12-10T11:55:49;17.60;;;7.85;;
71947;SDS011;63257;55.082;38.772;2022-12-10T12:11:59;17.75;;;7.03;;
71947;SDS011;63257;55.082;38.772;2022-12-10T12:22:27;20.08;;;8.43;;
71947;SDS011;63257;55.082;38.772;2022-12-10T12:25:40;19.60;;;8.37;;
71947;SDS011;63257;55.082;38.772;2022-12-10T12:28:03;23.48;;;11.30;;
71947;SDS011;63257;55.082;38.772;2022-12-10T12:30:34;17.73;;;8.57;;
71947;SDS011;63257;55.082;38.772;2022-12-10T12:33:09;20.53;;;8.63;;
71947;SDS011;63257;55.082;38.772;2022-12-10T12:40:53;21.85;;;9.25;;
71947;SDS011;63257;55.082;38.772;2022-12-10T12:46:04;25.83;;;9.88;;
71947;SDS011;63257;55.082;38.772;2022-12-10T12:51:15;23.43;;;9.67;;
71947;SDS011;63257;55.082;38.772;2022-12-10T12:53:44;18.70;;;8.63;;
71947;SDS011;63257;55.082;38.772;2022-12-10T12:59:11;27.13;;;9.00;;
71947;SDS011;63257;55.082;38.772;2022-12-10T13:01:48;24.15;;;9.07;;
71947;SDS011;63257;55.082;38.772;2022-12-10T13:04:16;19.15;;;8.20;;
71947;SDS011;63257;55.082;38.772;2022-12-10T13:07:08;18.15;;;8.13;;
71947;SDS011;63257;55.082;38.772;2022-12-10T13:09:49;17.63;;;8.10;;
71947;SDS011;63257;55.082;38.772;2022-12-10T13:17:33;15.80;;;7.60;;
71947;SDS011;63257;55.082;38.772;2022-12-10T13:23:03;18.45;;;7.63;;
71947;SDS011;63257;55.082;38.772;2022-12-10T13:41:33;17.83;;;7.03;;
71947;SDS011;63257;55.082;38.772;2022-12-10T13:47:24;15.18;;;6.68;;
71947;SDS011;63257;55.082;38.772;2022-12-10T13:49:56;16.17;;;6.65;;
71947;SDS011;63257;55.082;38.772;2022-12-10T14:04:16;14.98;;;7.13;;
71947;SDS011;63257;55.082;38.772;2022-12-10T14:06:47;14.60;;;6.93;;
71947;SDS011;63257;55.082;38.772;2022-12-10T14:11:48;13.23;;;6.67;;
71947;SDS011;63257;55.082;38.772;2022-12-10T14:14:29;13.23;;;5.90;;
71947;SDS011;63257;55.082;38.772;2022-12-10T14:17:00;13.15;;;5.63;;
71947;SDS011;63257;55.082;38.772;2022-12-10T14:19:29;13.57;;;5.77;;
71947;SDS011;63257;55.082;38.772;2022-12-10T14:21:56;13.00;;;6.13;;
71947;SDS011;63257;55.082;38.772;2022-12-10T14:24:33;13.48;;;6.03;;
71947;SDS011;63257;55.082;38.772;2022-12-10T14:27:18;14.48;;;6.03;;
71947;SDS011;63257;55.082;38.772;2022-12-10T14:29:51;14.82;;;5.93;;
71947;SDS011;63257;55.082;38.772;2022-12-10T14:32:25;14.60;;;6.40;;
71947;SDS011;63257;55.082;38.772;2022-12-10T14:35:05;14.77;;;6.32;;
71947;SDS011;63257;55.082;38.772;2022-12-10T14:37:35;13.57;;;5.97;;
71947;SDS011;63257;55.082;38.772;2022-12-10T14:40:05;15.43;;;6.22;;
71947;SDS011;63257;55.082;38.772;2022-12-10T14:42:32;13.40;;;5.78;;
71947;SDS011;63257;55.082;38.772;2022-12-10T14:44:59;14.90;;;6.37;;
71947;SDS011;63257;55.082;38.772;2022-12-10T14:47:33;12.80;;;6.13;;
71947;SDS011;63257;55.082;38.772;2022-12-10T14:50:03;17.83;;;7.13;;
71947;SDS011;63257;55.082;38.772;2022-12-10T14:52:41;18.20;;;8.60;;
71947;SDS011;63257;55.082;38.772;2022-12-10T14:55:11;15.60;;;7.13;;
71947;SDS011;63257;55.082;38.772;2022-12-10T14:57:40;16.52;;;6.93;;
71947;SDS011;63257;55.082;38.772;2022-12-10T15:00:13;13.55;;;6.55;;
71947;SDS011;63257;55.082;38.772;2022-12-10T15:02:44;15.07;;;6.43;;
71947;SDS011;63257;55.082;38.772;2022-12-10T15:05:13;16.13;;;6.30;;
71947;SDS011;63257;55.082;38.772;2022-12-10T15:07:52;14.43;;;6.00;;
71947;SDS011;63257;55.082;38.772;2022-12-10T15:10:27;14.57;;;6.37;;
71947;SDS011;63257;55.082;38.772;2022-12-10T15:13:00;13.20;;;6.68;;
71947;SDS011;63257;55.082;38.772;2022-12-10T15:15:33;15.07;;;6.25;;
71947;SDS011;63257;55.082;38.772;2022-12-10T15:28:27;15.97;;;6.13;;
71947;SDS011;63257;55.082;38.772;2022-12-10T15:33:57;13.05;;;6.65;;
71947;SDS011;63257;55.082;38.772;2022-12-10T15:38:51;13.95;;;6.05;;
71947;SDS011;63257;55.082;38.772;2022-12-10T15:41:24;14.02;;;6.72;;
71947;SDS011;63257;55.082;38.772;2022-12-10T15:43:58;14.20;;;5.82;;
71947;SDS011;63257;55.082;38.772;2022-12-10T15:46:30;14.88;;;5.70;;
71947;SDS011;63257;55.082;38.772;2022-12-10T15:48:56;12.02;;;5.47;;
71947;SDS011;63257;55.082;38.772;2022-12-10T15:51:22;13.50;;;5.95;;
71947;SDS011;63257;55.082;38.772;2022-12-10T15:53:47;13.30;;;5.05;;
71947;SDS011;63257;55.082;38.772;2022-12-10T15:56:13;11.43;;;5.10;;
71947;SDS011;63257;55.082;38.772;2022-12-10T15:58:39;13.02;;;5.45;;
71947;SDS011;63257;55.082;38.772;2022-12-10T16:01:07;13.88;;;5.60;;
71947;SDS011;63257;55.082;38.772;2022-12-10T16:03:37;11.60;;;5.50;;
71947;SDS011;63257;55.082;38.772;2022-12-10T16:06:05;13.23;;;5.57;;
71947;SDS011;63257;55.082;38.772;2022-12-10T16:08:31;13.83;;;5.40;;
71947;SDS011;63257;55.082;38.772;2022-12-10T16:11:01;12.57;;;5.93;;
71947;SDS011;63257;55.082;38.772;2022-12-10T16:13:36;11.45;;;5.35;;
71947;SDS011;63257;55.082;38.772;2022-12-10T16:16:09;11.43;;;4.83;;
71947;SDS011;63257;55.082;38.772;2022-12-10T16:18:37;12.60;;;4.90;;
71947;SDS011;63257;55.082;38.772;2022-12-10T16:21:04;11.68;;;4.95;;
71947;SDS011;63257;55.082;38.772;2022-12-10T16:23:31;12.70;;;5.37;;
71947;SDS011;63257;55.082;38.772;2022-12-10T16:25:58;13.00;;;5.25;;
71947;SDS011;63257;55.082;38.772;2022-12-10T16:28:26;13.85;;;5.35;;
71947;SDS011;63257;55.082;38.772;2022-12-10T16:30:53;12.47;;;5.10;;
71947;SDS011;63257;55.082;38.772;2022-12-10T16:33:21;13.43;;;5.38;;
71947;SDS011;63257;55.082;38.772;2022-12-10T16:35:49;12.32;;;5.03;;
71947;SDS011;63257;55.082;38.772;2022-12-10T16:38:17;12.82;;;5.38;;
71947;SDS011;63257;55.082;38.772;2022-12-10T16:40:44;12.13;;;5.55;;
71947;SDS011;63257;55.082;38.772;2022-12-10T16:43:14;12.38;;;5.75;;
71947;SDS011;63257;55.082;38.772;2022-12-10T16:45:45;13.15;;;5.55;;
71947;SDS011;63257;55.082;38.772;2022-12-10T16:48:12;13.80;;;6.40;;
71947;SDS011;63257;55.082;38.772;2022-12-10T16:50:38;13.95;;;5.28;;
71947;SDS011;63257;55.082;38.772;2022-12-10T16:53:38;13.80;;;5.57;;
71947;SDS011;63257;55.082;38.772;2022-12-10T16:56:01;15.50;;;6.13;;
71947;SDS011;63257;55.082;38.772;2022-12-10T16:58:27;13.82;;;5.68;;
71947;SDS011;63257;55.082;38.772;2022-12-10T17:00:53;16.98;;;6.28;;
71947;SDS011;63257;55.082;38.772;2022-12-10T17:03:21;14.30;;;5.97;;
71947;SDS011;63257;55.082;38.772;2022-12-10T17:05:54;16.27;;;5.95;;
71947;SDS011;63257;55.082;38.772;2022-12-10T17:08:29;15.13;;;5.55;;
71947;SDS011;63257;55.082;38.772;2022-12-10T17:10:55;13.67;;;5.60;;